Time;durP1;ratioP1;P1;durP2;ratioP2;P2;SDS_P1;SDS_P2;PMS_P1;PMS_P2;Temp;Humidity;BMP_temperature;BMP_pressure;BME280_temperature;BME280_humidity;BME280_pressure;Samples;Min_cycle;Max_cycle;Signal;HPM_P1;HPM_P2
2023/05/20 00:00:05;;;;;;;2.47;2.28;;;;;;;8.61;100.00;101978.50;5066061;28;20019;-73
2023/05/20 00:02:31;;;;;;;11.57;2.80;;;;;;;8.59;100.00;101996.41;5068069;28;20047;-73
2023/05/20 00:04:56;;;;;;;2.63;2.07;;;;;;;8.64;100.00;102020.88;5078913;28;20035;-72
2023/05/20 00:07:21;;;;;;;3.00;2.67;;;;;;;8.62;100.00;102041.47;5082346;28;20040;-72
2023/05/20 00:09:47;;;;;;;6.13;4.33;;;;;;;8.59;100.00;102049.66;5061757;28;20538;-73
2023/05/20 00:12:12;;;;;;;6.30;5.73;;;;;;;8.59;100.00;102081.59;5082824;28;20755;-72
2023/05/20 00:14:38;;;;;;;3.87;3.57;;;;;;;8.56;100.00;102082.69;5078423;28;20031;-73
2023/05/20 00:17:03;;;;;;;6.07;4.70;;;;;;;8.53;100.00;102098.06;5068052;28;20095;-72
2023/05/20 00:19:28;;;;;;;6.93;6.50;;;;;;;8.49;100.00;102144.50;5082041;28;20447;-72
2023/05/20 00:21:56;;;;;;;296.67;189.10;;;;;;;8.41;100.00;102124.63;5081744;28;20028;-72
2023/05/20 00:24:22;;;;;;;856.17;383.00;;;;;;;8.32;100.00;102156.38;5043192;28;20059;-73
2023/05/20 00:26:47;;;;;;;1997.70;583.97;;;;;;;8.29;100.00;102197.38;5067371;28;20398;-73
2023/05/20 00:29:12;;;;;;;1999.90;776.67;;;;;;;8.18;100.00;102231.88;5047123;28;20089;-73
2023/05/20 00:31:38;;;;;;;1999.90;955.63;;;;;;;8.13;100.00;102271.25;5081020;28;20039;-72
2023/05/20 00:34:04;;;;;;;1999.90;917.42;;;;;;;8.12;100.00;102301.47;5064806;28;20039;-72
2023/05/20 00:36:30;;;;;;;1999.90;759.83;;;;;;;8.06;100.00;102318.72;5050366;28;20027;-73
2023/05/20 00:38:55;;;;;;;1999.90;935.60;;;;;;;8.03;100.00;102330.44;5061854;28;20800;-72
2023/05/20 00:41:21;;;;;;;1999.90;776.90;;;;;;;7.88;100.00;102320.84;5066074;28;20027;-73
2023/05/20 00:43:46;;;;;;;1999.90;847.27;;;;;;;7.87;100.00;102345.75;5051422;28;20108;-72
2023/05/20 00:46:12;;;;;;;1999.90;999.90;;;;;;;7.86;100.00;102338.72;5067649;28;20055;-72
2023/05/20 00:48:42;;;;;;;1999.90;757.85;;;;;;;7.90;100.00;102345.53;5083586;28;20033;-72
2023/05/20 00:51:10;;;;;;;1999.90;999.90;;;;;;;7.90;100.00;102348.19;5060313;28;20059;-73
2023/05/20 00:53:35;;;;;;;1999.90;999.90;;;;;;;7.89;100.00;102345.63;5071402;28;20024;-72
2023/05/20 00:56:05;;;;;;;1999.90;925.45;;;;;;;7.88;100.00;102349.25;5064140;28;20035;-72
2023/05/20 00:58:31;;;;;;;1999.90;999.90;;;;;;;7.81;100.00;102331.06;5064459;28;20410;-72
2023/05/20 01:00:56;;;;;;;1999.90;999.90;;;;;;;7.75;100.00;102325.31;5061705;28;20032;-72
2023/05/20 01:03:22;;;;;;;1999.90;748.22;;;;;;;7.73;100.00;102332.56;5061194;28;20056;-72
2023/05/20 01:05:47;;;;;;;1999.90;999.90;;;;;;;7.70;100.00;102316.78;5051130;28;20559;-72
2023/05/20 01:08:12;;;;;;;1999.90;999.90;;;;;;;7.66;100.00;102315.34;5067798;28;20028;-72
2023/05/20 01:10:43;;;;;;;1999.90;999.90;;;;;;;7.74;100.00;102318.28;5066961;28;20063;-72
2023/05/20 01:13:14;;;;;;;1999.90;999.90;;;;;;;7.74;100.00;102313.81;5055707;28;20040;-72
2023/05/20 01:15:43;;;;;;;1999.90;999.90;;;;;;;7.78;100.00;102301.19;5065744;28;20039;-73
2023/05/20 01:18:09;;;;;;;1999.90;999.90;;;;;;;7.78;100.00;102282.56;5042796;28;20034;-73
2023/05/20 01:20:36;;;;;;;1999.90;999.90;;;;;;;7.74;100.00;102276.59;5082663;28;20025;-72
2023/05/20 01:23:03;;;;;;;1999.90;999.90;;;;;;;7.81;100.00;102250.44;5052418;28;20479;-72
2023/05/20 01:25:28;;;;;;;;;;;;;;;7.86;100.00;102248.31;5056037;28;20036;-72
2023/05/20 01:27:54;;;;;;;;;;;;;;;7.90;100.00;102228.53;5077467;28;20258;-72
2023/05/20 01:30:28;;;;;;;1999.90;943.95;;;;;;;7.88;100.00;102210.97;5064220;28;19964;-72
2023/05/20 01:32:58;;;;;;;1999.90;859.78;;;;;;;7.92;100.00;102225.75;5060807;28;20122;-72
2023/05/20 01:35:24;;;;;;;1999.90;999.90;;;;;;;8.00;100.00;102197.63;5061015;28;20032;-72
2023/05/20 01:37:54;;;;;;;1999.90;999.90;;;;;;;8.07;100.00;102183.91;5049719;28;20394;-72
2023/05/20 01:40:26;;;;;;;1999.90;999.90;;;;;;;8.07;100.00;102181.25;5076726;28;20039;-72
2023/05/20 01:42:53;;;;;;;1999.90;906.72;;;;;;;8.12;100.00;102173.78;5061957;28;20040;-72
2023/05/20 01:45:19;;;;;;;1999.90;999.90;;;;;;;8.16;100.00;102153.97;5066124;28;20107;-72
2023/05/20 01:47:45;;;;;;;1999.90;791.10;;;;;;;8.16;100.00;102146.00;5062765;28;20038;-73
2023/05/20 01:50:11;;;;;;;1999.90;946.03;;;;;;;8.23;100.00;102134.78;5066441;28;20027;-73
2023/05/20 01:52:36;;;;;;;1999.90;702.50;;;;;;;8.16;100.00;102116.75;5058338;28;20387;-73
2023/05/20 01:55:02;;;;;;;1999.90;999.90;;;;;;;8.23;100.00;102133.94;5062498;28;20066;-73
2023/05/20 01:57:27;;;;;;;1999.90;999.90;;;;;;;8.28;100.00;102113.16;5066126;28;20032;-73
2023/05/20 01:59:53;;;;;;;1999.90;925.20;;;;;;;8.27;100.00;102105.31;5048438;28;20028;-72
2023/05/20 02:02:18;;;;;;;1999.90;999.90;;;;;;;8.23;100.00;102096.69;5064762;28;20024;-72
2023/05/20 02:04:48;;;;;;;1999.90;966.53;;;;;;;8.23;100.00;102088.72;5065788;28;20028;-73
2023/05/20 02:07:17;;;;;;;1999.90;939.35;;;;;;;8.21;100.00;102066.69;5079549;28;20028;-73
2023/05/20 02:09:44;;;;;;;1999.90;789.60;;;;;;;8.28;100.00;102056.44;5059141;28;20060;-73
2023/05/20 02:12:15;;;;;;;1999.90;833.33;;;;;;;8.25;100.00;102023.78;5062245;28;20505;-73
2023/05/20 02:14:45;;;;;;;1999.90;971.42;;;;;;;8.27;100.00;101991.75;5079335;28;20093;-73
2023/05/20 02:17:13;;;;;;;1999.90;752.88;;;;;;;8.24;100.00;101949.38;5059008;28;20529;-73
2023/05/20 02:19:38;;;;;;;1999.90;919.38;;;;;;;8.22;100.00;101930.91;5049514;28;20489;-72
2023/05/20 02:22:05;;;;;;;1999.90;950.38;;;;;;;8.14;100.00;101922.66;5062402;28;20059;-73
2023/05/20 02:24:30;;;;;;;1999.90;826.65;;;;;;;8.17;100.00;101937.53;5060626;28;20047;-72
2023/05/20 02:26:57;;;;;;;1999.90;908.60;;;;;;;8.20;100.00;101921.34;5058150;28;20442;-73
2023/05/20 02:29:23;;;;;;;1999.90;964.20;;;;;;;8.15;100.00;101915.53;5040853;28;20468;-72
2023/05/20 02:31:49;;;;;;;1999.90;889.38;;;;;;;8.10;100.00;101902.59;5062188;28;20491;-73
2023/05/20 02:34:17;;;;;;;1999.90;931.73;;;;;;;8.16;100.00;101893.28;5082578;28;20062;-73
2023/05/20 02:36:43;;;;;;;1999.90;925.97;;;;;;;8.16;100.00;101882.63;5053957;28;20024;-72
2023/05/20 02:39:08;;;;;;;1999.90;993.10;;;;;;;8.09;100.00;101892.06;5065272;28;20429;-73
2023/05/20 02:41:35;;;;;;;1999.90;960.80;;;;;;;8.09;100.00;101908.84;5082378;28;20036;-72
2023/05/20 02:44:03;;;;;;;1999.90;915.10;;;;;;;8.09;100.00;101919.50;5065462;28;20028;-72
2023/05/20 02:46:28;;;;;;;1999.90;952.75;;;;;;;8.12;100.00;101937.03;5065543;28;20390;-72
2023/05/20 02:48:54;;;;;;;1999.90;910.13;;;;;;;8.15;100.00;101940.31;5061580;28;20043;-72
2023/05/20 02:51:19;;;;;;;1999.90;948.83;;;;;;;8.22;100.00;101954.84;5049661;28;20032;-73
2023/05/20 02:53:46;;;;;;;1999.90;881.05;;;;;;;8.25;100.00;101951.09;5065969;28;20031;-73
2023/05/20 02:56:12;;;;;;;;;;;;;;;8.31;100.00;101949.75;5070314;28;20068;-73
2023/05/20 02:58:37;;;;;;;;;;;;;;;8.32;100.00;101931.03;5058098;28;19950;-73
2023/05/20 03:01:02;;;;;;;1879.20;581.33;;;;;;;8.36;100.00;101913.88;5049409;28;19920;-72
2023/05/20 03:03:28;;;;;;;1999.90;812.07;;;;;;;8.38;100.00;101882.66;5065101;28;20020;-72
2023/05/20 03:05:53;;;;;;;1999.90;758.20;;;;;;;8.50;100.00;101829.44;5069907;28;20309;-73
2023/05/20 03:08:21;;;;;;;1999.90;892.57;;;;;;;8.51;100.00;101801.88;5069456;28;20028;-73
2023/05/20 03:10:46;;;;;;;1999.90;912.03;;;;;;;8.51;100.00;101796.56;5069648;28;20123;-73
2023/05/20 03:13:14;;;;;;;1999.90;795.90;;;;;;;8.50;100.00;101805.50;5049590;28;20114;-73
2023/05/20 03:15:40;;;;;;;1999.90;952.65;;;;;;;8.49;100.00;101836.59;5068454;28;20090;-72
2023/05/20 03:18:09;;;;;;;1999.90;754.70;;;;;;;8.47;100.00;101835.03;5053180;28;20492;-73
2023/05/20 03:20:38;;;;;;;1999.90;824.80;;;;;;;8.40;100.00;101838.16;5048544;28;20519;-72
2023/05/20 03:23:06;;;;;;;1999.90;904.75;;;;;;;8.40;100.00;101870.09;5061983;28;20125;-73
2023/05/20 03:25:31;;;;;;;1999.90;861.45;;;;;;;8.42;100.00;101901.91;5085343;28;20418;-73
2023/05/20 03:27:58;;;;;;;1999.90;973.33;;;;;;;8.45;100.00;101905.19;5065223;28;20039;-72
2023/05/20 03:30:23;;;;;;;;;;;;;;;8.46;100.00;101937.97;5069219;28;20024;-72
2023/05/20 03:32:49;;;;;;;1999.90;925.20;;;;;;;8.44;100.00;101954.06;5068940;28;19980;-73
2023/05/20 03:35:15;;;;;;;1999.90;880.78;;;;;;;8.52;100.00;101979.22;5064732;28;20467;-72
2023/05/20 03:37:40;;;;;;;1965.85;629.55;;;;;;;8.53;100.00;101979.13;5052833;28;20055;-72
2023/05/20 03:40:09;;;;;;;1999.90;744.73;;;;;;;8.56;100.00;102001.97;5061929;28;20067;-72
2023/05/20 03:42:37;;;;;;;1999.90;711.28;;;;;;;8.63;100.00;102008.53;5064448;28;20085;-72
2023/05/20 03:45:04;;;;;;;1999.90;722.88;;;;;;;8.68;100.00;102029.47;5052688;28;20028;-72
2023/05/20 03:47:35;;;;;;;1999.90;741.55;;;;;;;8.68;100.00;102053.44;5047874;28;20023;-73
2023/05/20 03:50:00;;;;;;;1999.90;957.65;;;;;;;8.71;100.00;102062.06;5052648;28;20370;-72
2023/05/20 03:52:26;;;;;;;1999.90;650.77;;;;;;;8.72;100.00;102070.88;5062291;28;20032;-72
2023/05/20 03:54:53;;;;;;;1999.90;797.27;;;;;;;8.76;100.00;102093.66;5067743;28;20181;-72
2023/05/20 03:57:18;;;;;;;1999.90;799.75;;;;;;;8.81;100.00;102102.97;5059855;28;20016;-73
2023/05/20 03:59:44;;;;;;;1999.90;930.85;;;;;;;8.82;100.00;102090.50;5078477;28;20169;-73
2023/05/20 04:02:09;;;;;;;1999.90;864.90;;;;;;;8.77;100.00;102101.50;5048481;28;20024;-72
2023/05/20 04:04:35;;;;;;;1999.90;999.90;;;;;;;8.82;100.00;102128.63;5068476;28;20028;-72
2023/05/20 04:07:02;;;;;;;1999.90;999.90;;;;;;;8.85;100.00;102144.38;5066728;28;20303;-73
2023/05/20 04:09:27;;;;;;;1999.90;999.90;;;;;;;8.93;100.00;102153.59;5068057;28;20047;-73
2023/05/20 04:11:52;;;;;;;1999.90;999.90;;;;;;;9.00;100.00;102154.81;5063884;28;20020;-73
2023/05/20 04:14:18;;;;;;;1999.90;999.90;;;;;;;9.07;100.00;102156.06;5067592;28;20039;-72
2023/05/20 04:16:44;;;;;;;1999.90;999.90;;;;;;;9.07;100.00;102154.22;5081856;28;20194;-72
2023/05/20 04:19:11;;;;;;;1999.90;999.90;;;;;;;9.13;100.00;102160.03;5080990;28;20198;-72
2023/05/20 04:21:37;;;;;;;;;;;;;;;9.12;100.00;102159.19;5047442;28;20023;-73
2023/05/20 04:24:03;;;;;;;1999.90;617.90;;;;;;;9.15;100.00;102158.97;5065684;28;19916;-73
2023/05/20 04:26:28;;;;;;;1999.90;749.13;;;;;;;9.21;100.00;102178.97;5062008;28;20073;-72
2023/05/20 04:28:57;;;;;;;1999.90;999.90;;;;;;;9.26;100.00;102182.13;5051750;28;20123;-72
2023/05/20 04:31:25;;;;;;;1999.90;999.90;;;;;;;9.30;100.00;102181.75;5059465;28;20391;-73
2023/05/20 04:33:52;;;;;;;1999.90;999.90;;;;;;;9.42;100.00;102197.78;5067073;28;20542;-72
2023/05/20 04:36:17;;;;;;;1999.90;999.90;;;;;;;9.49;100.00;102196.34;5046740;28;20028;-73
2023/05/20 04:38:43;;;;;;;1999.90;999.90;;;;;;;9.63;100.00;102201.41;5063354;28;20028;-73
2023/05/20 04:41:09;;;;;;;1999.90;999.90;;;;;;;9.62;100.00;102194.41;5063535;28;20635;-73
2023/05/20 04:43:38;;;;;;;1999.90;999.90;;;;;;;9.70;100.00;102199.13;5059945;28;20036;-73
2023/05/20 04:46:04;;;;;;;1999.90;999.90;;;;;;;9.80;100.00;102191.25;5063356;28;20020;-73
2023/05/20 04:48:31;;;;;;;1999.90;999.90;;;;;;;9.92;100.00;102184.91;5062798;28;20044;-72
2023/05/20 04:50:57;;;;;;;1999.90;999.90;;;;;;;9.93;100.00;102176.81;5051475;28;20024;-72
2023/05/20 04:53:23;;;;;;;1999.90;999.90;;;;;;;10.04;100.00;102189.25;5063023;28;20036;-73
2023/05/20 04:55:52;;;;;;;1999.90;999.90;;;;;;;10.23;100.00;102198.44;5064207;28;20023;-73
2023/05/20 04:58:18;;;;;;;1999.90;999.90;;;;;;;10.32;100.00;102187.94;5060522;28;20031;-73
2023/05/20 05:00:44;;;;;;;1999.90;999.90;;;;;;;10.47;100.00;102192.97;5073993;28;20024;-73
2023/05/20 05:03:11;;;;;;;1999.90;999.90;;;;;;;10.56;100.00;102189.53;5066972;28;20032;-73
2023/05/20 05:05:41;;;;;;;;;;;;;;;10.69;100.00;102189.34;5051620;28;20024;-73
2023/05/20 05:08:07;;;;;;;1999.90;999.90;;;;;;;10.85;100.00;102178.25;5067970;28;19924;-73
2023/05/20 05:10:36;;;;;;;1999.90;999.90;;;;;;;10.97;100.00;102171.84;5067747;28;20039;-73
2023/05/20 05:13:02;;;;;;;1999.90;999.90;;;;;;;11.13;100.00;102166.06;5050570;28;20436;-73
2023/05/20 05:15:28;;;;;;;1999.90;999.90;;;;;;;11.33;100.00;102159.84;5046115;28;20501;-73
2023/05/20 05:17:54;;;;;;;1999.90;999.90;;;;;;;11.44;100.00;102131.31;5059820;28;20123;-73
2023/05/20 05:20:20;;;;;;;1999.90;999.90;;;;;;;11.42;100.00;102107.38;5060231;28;20489;-73
2023/05/20 05:22:45;;;;;;;1999.90;999.90;;;;;;;11.96;100.00;102169.53;5062836;28;20050;-73
2023/05/20 05:25:12;;;;;;;1999.90;999.90;;;;;;;13.05;100.00;102168.44;5066896;28;20027;-73
2023/05/20 05:27:38;;;;;;;1999.90;999.90;;;;;;;14.12;100.00;102003.38;5083929;28;20052;-73
2023/05/20 05:30:05;;;;;;;1999.90;900.50;;;;;;;14.41;100.00;101699.50;5063011;28;20055;-73
2023/05/20 05:32:30;;;;;;;1999.90;930.20;;;;;;;14.46;100.00;101586.16;5061540;28;20036;-73
2023/05/20 05:34:56;;;;;;;1999.90;945.70;;;;;;;13.86;100.00;101506.72;5054477;28;20051;-73
2023/05/20 05:37:21;;;;;;;1999.90;914.97;;;;;;;13.60;100.00;101614.16;5062258;28;20040;-73
2023/05/20 05:39:47;;;;;;;1999.90;660.70;;;;;;;13.59;100.00;101617.84;5061727;28;20422;-73
2023/05/20 05:42:12;;;;;;;1999.90;999.90;;;;;;;13.68;100.00;101726.91;5058449;28;20111;-79
2023/05/20 05:44:38;;;;;;;1999.90;999.90;;;;;;;13.85;100.00;101722.47;5073861;28;20046;-72
2023/05/20 05:47:05;;;;;;;1999.90;999.90;;;;;;;14.52;100.00;101770.91;5050116;28;20138;-76
2023/05/20 05:49:32;;;;;;;1999.90;999.90;;;;;;;15.44;100.00;101725.94;5044925;28;20115;-74
2023/05/20 05:51:57;;;;;;;;;;;;;;;16.40;100.00;101570.50;5060757;28;20452;-74
2023/05/20 05:54:23;;;;;;;1999.90;924.92;;;;;;;17.03;100.00;101436.25;5048085;28;20003;-72
2023/05/20 05:56:53;;;;;;;1999.90;957.75;;;;;;;16.83;100.00;101213.03;5059204;28;20448;-75
2023/05/20 05:59:19;;;;;;;1999.90;891.22;;;;;;;17.24;100.00;101285.19;5066129;28;20036;-72
2023/05/20 06:01:45;;;;;;;1999.90;832.67;;;;;;;17.80;97.33;101172.88;5083472;28;20490;-75
2023/05/20 06:04:10;;;;;;;519.67;338.57;;;;;;;17.90;93.80;101022.09;5065906;28;20024;-76
2023/05/20 06:06:37;;;;;;;327.60;195.65;;;;;;;18.28;91.78;101016.13;5066340;28;20519;-72
2023/05/20 06:09:02;;;;;;;1911.53;418.00;;;;;;;17.65;90.07;100863.34;5047305;28;20039;-73
2023/05/20 06:11:28;;;;;;;1999.90;408.23;;;;;;;15.93;93.14;100814.88;5072247;28;20051;-75
2023/05/20 06:13:54;;;;;;;908.83;482.20;;;;;;;17.37;94.11;101267.44;5064831;28;20028;-71
2023/05/20 06:16:20;;;;;;;972.78;457.95;;;;;;;17.01;92.67;101087.66;5058121;28;20529;-73
2023/05/20 06:18:46;;;;;;;1553.78;301.58;;;;;;;17.17;91.04;101036.09;5062093;28;20870;-72
2023/05/20 06:21:11;;;;;;;693.80;180.80;;;;;;;18.06;91.05;101259.47;5054676;28;20032;-74
2023/05/20 06:23:37;;;;;;;261.20;209.13;;;;;;;17.67;89.44;101058.34;5065865;28;20023;-72
2023/05/20 06:26:05;;;;;;;1953.68;385.88;;;;;;;17.32;88.62;100967.66;5062274;28;20024;-73
2023/05/20 06:28:30;;;;;;;973.83;244.10;;;;;;;17.66;88.87;101134.97;5061218;28;20518;-78
2023/05/20 06:30:56;;;;;;;1999.90;534.93;;;;;;;16.65;88.44;100870.25;5060325;28;20377;-74
2023/05/20 06:33:25;;;;;;;1999.90;438.75;;;;;;;16.23;90.87;101057.94;5040827;28;20028;-72
2023/05/20 06:35:52;;;;;;;1999.90;543.70;;;;;;;16.82;95.52;101524.16;5079477;28;20040;-72
2023/05/20 06:38:18;;;;;;;1086.43;402.63;;;;;;;17.97;92.27;101502.97;5057388;28;20082;-71
2023/05/20 06:40:44;;;;;;;872.70;340.20;;;;;;;18.16;89.48;101348.28;5058775;28;20386;-72
2023/05/20 06:43:09;;;;;;;567.47;320.60;;;;;;;17.96;88.22;101247.34;5061551;28;20039;-72
2023/05/20 06:45:46;;;;;;;1999.90;551.53;;;;;;;17.00;87.87;100981.66;5075002;28;20511;-74
2023/05/20 06:48:26;;;;;;;1999.90;612.13;;;;;;;16.76;90.72;101212.06;5061966;28;20086;-75
2023/05/20 06:50:52;;;;;;;1999.90;711.10;;;;;;;15.75;93.91;101259.50;5061138;28;20453;-72
2023/05/20 06:53:17;;;;;;;1671.13;563.37;;;;;;;16.78;95.64;101625.28;5065658;28;20030;-71
2023/05/20 06:55:42;;;;;;;1999.90;543.37;;;;;;;15.57;93.98;101214.91;5062222;28;20032;-74
2023/05/20 06:58:08;;;;;;;1999.90;814.27;;;;;;;15.22;100.00;101662.06;5057861;28;20023;-71
2023/05/20 07:00:33;;;;;;;1999.90;616.80;;;;;;;15.04;100.00;101662.28;5061948;28;20270;-71
2023/05/20 07:02:59;;;;;;;1999.90;673.40;;;;;;;15.22;100.00;101831.53;5065486;28;20287;-72
2023/05/20 07:05:26;;;;;;;1999.90;850.50;;;;;;;15.48;100.00;101896.84;5081687;28;20586;-75
2023/05/20 07:07:51;;;;;;;1999.90;643.20;;;;;;;16.38;100.00;101831.25;5060970;28;20023;-72
2023/05/20 07:10:17;;;;;;;1999.90;693.40;;;;;;;15.59;100.00;101632.75;5067614;28;20028;-75
2023/05/20 07:12:42;;;;;;;1999.90;654.33;;;;;;;16.41;100.00;101812.91;5065997;28;20067;-71
2023/05/20 07:15:08;;;;;;;1088.57;246.05;;;;;;;17.00;98.32;101674.03;5061804;28;20032;-71
2023/05/20 07:17:34;;;;;;;1999.90;396.73;;;;;;;16.76;95.00;101410.75;5049071;28;20039;-73
2023/05/20 07:19:59;;;;;;;1999.90;569.80;;;;;;;15.68;96.45;101272.81;5076600;28;20043;-72
2023/05/20 07:22:25;;;;;;;1471.55;556.72;;;;;;;16.33;99.64;101694.34;5047529;28;20055;-76
2023/05/20 07:24:55;;;;;;;1999.90;582.90;;;;;;;16.03;96.55;101422.13;5059224;28;20629;-75
2023/05/20 07:27:21;;;;;;;1999.90;662.80;;;;;;;14.88;100.00;101431.94;5042459;28;20032;-74
2023/05/20 07:29:46;;;;;;;1999.90;807.07;;;;;;;15.01;100.00;101791.69;5065266;28;20479;-72
2023/05/20 07:32:12;;;;;;;1999.90;649.67;;;;;;;16.02;100.00;101856.78;5064756;28;20350;-75
2023/05/20 07:34:37;;;;;;;1999.90;564.17;;;;;;;16.39;100.00;101809.53;5065579;28;20036;-72
2023/05/20 07:37:03;;;;;;;1999.90;328.60;;;;;;;16.24;96.59;101409.81;5064235;28;20032;-72
2023/05/20 07:39:28;;;;;;;1999.90;371.90;;;;;;;16.26;97.77;101550.56;5065322;28;20024;-72
2023/05/20 07:41:53;;;;;;;678.10;362.03;;;;;;;17.03;98.11;101736.53;5067248;28;20042;-73
2023/05/20 07:44:20;;;;;;;1304.53;404.77;;;;;;;16.65;94.09;101374.34;5064085;28;20024;-71
2023/05/20 07:46:48;;;;;;;1999.90;537.03;;;;;;;16.45;91.91;101198.91;5067770;28;20032;-74
2023/05/20 07:49:14;;;;;;;1732.87;306.40;;;;;;;17.17;92.00;101400.31;5068677;28;20069;-74
2023/05/20 07:51:39;;;;;;;1999.90;363.73;;;;;;;17.06;89.50;101193.09;5065255;28;20089;-74
2023/05/20 07:54:05;;;;;;;559.57;192.07;;;;;;;17.22;90.20;101335.00;5067320;28;20142;-71
2023/05/20 07:56:30;;;;;;;749.03;186.63;;;;;;;17.65;89.40;101357.44;5068831;28;20040;-78
2023/05/20 07:58:57;;;;;;;1114.75;163.80;;;;;;;18.19;87.08;101320.00;5068503;28;20262;-72
2023/05/20 08:01:26;;;;;;;638.45;206.68;;;;;;;16.68;86.62;100966.88;5059586;28;20515;-76
2023/05/20 08:03:52;;;;;;;372.30;220.50;;;;;;;17.47;86.92;101238.28;5050726;28;20077;-71
2023/05/20 08:06:20;;;;;;;1999.90;281.33;;;;;;;18.09;84.04;101156.38;5066369;28;20035;-74
2023/05/20 08:08:46;;;;;;;660.65;125.72;;;;;;;18.52;82.01;101072.28;5064554;28;20512;-77
2023/05/20 08:11:17;;;;;;;846.97;123.05;;;;;;;18.54;79.98;100934.19;5059001;28;20029;-71
2023/05/20 08:13:43;;;;;;;463.10;105.07;;;;;;;17.90;82.90;101132.84;5064149;28;20036;-77
2023/05/20 08:16:08;;;;;;;335.20;95.80;;;;;;;17.95;82.22;101080.91;5056445;28;20028;-74
2023/05/20 08:18:37;;;;;;;574.28;160.82;;;;;;;17.12;82.22;100940.63;5064007;28;20058;-72
2023/05/20 08:21:06;;;;;;;102.30;51.85;;;;;;;18.37;80.64;101071.63;5057256;28;20548;-74
2023/05/20 08:23:32;;;;;;;12.82;10.45;;;;;;;18.85;77.76;100941.66;5082580;28;20043;-72
2023/05/20 08:26:01;;;;;;;472.58;65.88;;;;;;;18.86;76.56;100808.06;5064163;28;20027;-72
2023/05/20 08:28:28;;;;;;;64.63;25.58;;;;;;;18.57;76.06;100731.00;5067814;28;20079;-74
2023/05/20 08:30:53;;;;;;;1638.68;217.20;;;;;;;16.45;78.45;100453.28;5054995;28;20067;-72
2023/05/20 08:33:20;;;;;;;266.80;48.00;;;;;;;16.90;77.95;100651.34;5062946;28;20028;-73
2023/05/20 08:35:46;;;;;;;112.85;22.52;;;;;;;17.18;78.93;100848.91;5067821;28;20059;-74
2023/05/20 08:38:12;;;;;;;;;;;;;;;17.11;77.59;100620.66;5056765;28;20032;-74
2023/05/20 08:40:37;;;;;;;483.48;71.72;;;;;;;16.67;79.41;100776.53;5085248;28;19918;-74
2023/05/20 08:43:03;;;;;;;99.95;26.67;;;;;;;17.67;79.33;101063.72;5060251;28;20529;-71
2023/05/20 08:45:32;;;;;;;719.17;101.43;;;;;;;17.27;76.79;100664.22;5066742;28;20036;-71
2023/05/20 08:48:04;;;;;;;5.25;3.70;;;;;;;18.05;75.93;100776.94;5061061;28;20081;-73
2023/05/20 08:50:31;;;;;;;5.18;4.65;;;;;;;19.00;75.17;100964.91;5045174;28;20029;-72
2023/05/20 08:52:56;;;;;;;271.52;41.42;;;;;;;17.77;71.38;100117.50;5083821;28;20020;-74
2023/05/20 08:55:34;;;;;;;3.37;2.20;;;;;;;17.52;74.06;100547.50;5084026;28;20038;-74
2023/05/20 08:58:01;;;;;;;282.10;41.53;;;;;;;17.39;72.74;100327.09;5084533;28;20296;-72
2023/05/20 09:00:27;;;;;;;4.20;2.35;;;;;;;18.83;73.32;100835.53;5080187;28;20020;-74
2023/05/20 09:02:54;;;;;;;475.90;73.50;;;;;;;17.15;70.69;99969.97;5079158;28;20177;-74
2023/05/20 09:05:20;;;;;;;;;;;;;;;17.92;72.10;100514.97;5076110;28;20024;-72
2023/05/20 09:07:45;;;;;;;38.55;11.43;;;;;;;18.35;69.38;100314.28;5081817;28;19927;-77
2023/05/20 09:10:10;;;;;;;67.63;16.90;;;;;;;17.10;70.91;100115.47;5077750;28;20016;-77
2023/05/20 09:12:37;;;;;;;24.30;4.40;;;;;;;18.16;70.90;100569.28;5083462;28;20040;-74
2023/05/20 09:15:02;;;;;;;562.63;67.57;;;;;;;17.42;69.66;100163.94;5067488;28;20060;-73
2023/05/20 09:17:28;;;;;;;347.15;54.50;;;;;;;17.08;69.20;100005.09;5067094;28;20140;-72
2023/05/20 09:19:53;;;;;;;439.50;62.87;;;;;;;16.85;69.95;100065.03;5049557;28;20031;-72
2023/05/20 09:22:28;;;;;;;1899.70;225.57;;;;;;;16.58;69.07;99924.28;5076432;28;20032;-75
2023/05/20 09:24:54;;;;;;;114.40;83.35;;;;;;;16.61;72.10;100311.91;5083996;28;20028;-74
2023/05/20 09:27:20;;;;;;;286.63;179.60;;;;;;;16.24;72.50;100308.06;5062702;28;20062;-74
2023/05/20 09:29:47;;;;;;;15.73;14.77;;;;;;;17.15;72.54;100586.84;5067591;28;20039;-74
2023/05/20 09:32:13;;;;;;;231.57;110.15;;;;;;;15.88;73.13;100277.06;5046657;28;20471;-78
2023/05/20 09:34:40;;;;;;;629.88;161.40;;;;;;;15.91;73.00;100291.97;5056458;28;20047;-72
2023/05/20 09:37:06;;;;;;;481.60;170.38;;;;;;;15.19;73.81;100186.81;5059659;28;20016;-71
2023/05/20 09:39:39;;;;;;;192.25;109.82;;;;;;;15.48;74.34;100371.19;5066526;28;20478;-71
2023/05/20 09:42:17;;;;;;;777.83;185.48;;;;;;;15.19;74.80;100319.41;5076709;28;20039;-74
2023/05/20 09:44:43;;;;;;;749.40;195.57;;;;;;;15.51;76.00;100577.13;5079940;28;20095;-72
2023/05/20 09:47:10;;;;;;;27.45;25.52;;;;;;;16.21;76.32;100796.84;5080507;28;20023;-74
2023/05/20 09:49:36;;;;;;;36.17;32.95;;;;;;;16.99;76.23;101001.53;5062018;28;20040;-73
2023/05/20 09:52:02;;;;;;;87.32;44.05;;;;;;;16.37;73.28;100431.16;5083341;28;20028;-79
2023/05/20 09:54:29;;;;;;;201.05;72.75;;;;;;;16.44;72.65;100416.63;5066136;28;20101;-72
2023/05/20 09:56:58;;;;;;;11.48;10.68;;;;;;;16.12;73.05;100409.38;5062751;28;20031;-77
2023/05/20 09:59:23;;;;;;;294.77;79.65;;;;;;;15.67;73.19;100267.31;5049664;28;20035;-72
2023/05/20 10:01:49;;;;;;;19.13;12.40;;;;;;;16.08;73.63;100488.94;5061900;28;20473;-75
2023/05/20 10:04:16;;;;;;;4.03;2.20;;;;;;;17.21;73.20;100772.97;5075239;28;20036;-76
2023/05/20 10:06:56;;;;;;;9.40;8.82;;;;;;;17.85;71.03;100666.22;5083156;28;20035;-72
2023/05/20 10:09:44;;;;;;;14.02;12.77;;;;;;;16.96;70.01;100235.25;5081116;28;20036;-71
2023/05/20 10:12:32;;;;;;;1204.57;176.32;;;;;;;15.93;71.26;100094.19;5080471;28;20407;-77
2023/05/20 10:15:31;;;;;;;175.50;78.80;;;;;;;16.65;72.52;100526.06;5063905;28;20032;-75
2023/05/20 10:18:29;;;;;;;332.98;86.03;;;;;;;16.10;72.13;100284.91;5047011;28;20109;-72
2023/05/20 10:20:55;;;;;;;6.10;4.95;;;;;;;17.66;73.32;100948.69;5063424;28;20093;-74
2023/05/20 10:23:27;;;;;;;186.43;45.47;;;;;;;16.86;70.79;100309.34;5065466;28;20077;-73
2023/05/20 10:25:57;;;;;;;8.63;2.45;;;;;;;18.71;72.62;101105.78;5061389;28;20539;-72
2023/05/20 10:28:30;;;;;;;5.60;5.10;;;;;;;19.73;68.38;100797.50;5065932;28;20430;-73
2023/05/20 10:30:57;;;;;;;25.23;23.55;;;;;;;20.53;67.55;100869.88;5062032;28;20398;-72
2023/05/20 10:33:25;;;;;;;47.58;43.67;;;;;;;19.31;65.36;100226.06;5078166;28;20020;-74
2023/05/20 10:35:51;;;;;;;12.13;11.15;;;;;;;19.44;65.94;100400.19;5066187;28;20343;-73
2023/05/20 10:38:17;;;;;;;12.18;11.35;;;;;;;19.79;66.62;100598.88;5078788;28;20112;-72
2023/05/20 10:40:42;;;;;;;10.10;7.25;;;;;;;19.27;66.11;100395.41;5082986;28;20028;-73
2023/05/20 10:43:27;;;;;;;70.90;56.58;;;;;;;18.92;66.75;100358.19;5058427;28;20035;-72
2023/05/20 10:45:55;;;;;;;29.42;27.17;;;;;;;18.43;67.79;100376.16;5072797;28;20036;-73
2023/05/20 10:48:24;;;;;;;36.70;33.58;;;;;;;18.79;67.95;100569.25;5062178;28;20407;-75
2023/05/20 10:50:53;;;;;;;5.30;4.53;;;;;;;18.69;68.78;100596.78;5079205;28;20051;-75
2023/05/20 10:53:21;;;;;;;21.73;20.33;;;;;;;19.72;67.76;100832.94;5082446;28;20483;-76